createdAt,value
2023-03-24T00:00:09.595Z,45.60
2023-03-24T00:01:10.371Z,38.70
2023-03-24T00:02:11.123Z,48.10
2023-03-24T00:03:11.950Z,56.20
2023-03-24T00:04:12.761Z,48.60
2023-03-24T00:05:13.457Z,44.60
2023-03-24T00:06:14.168Z,63.30
2023-03-24T00:07:14.874Z,45.60
2023-03-24T00:08:15.599Z,39.20
2023-03-24T00:09:16.300Z,53.40
2023-03-24T00:10:17.002Z,43.90
2023-03-24T00:11:17.709Z,43.30
2023-03-24T00:12:18.411Z,41.30
2023-03-24T00:13:19.113Z,36.70
2023-03-24T00:14:19.819Z,53.50
2023-03-24T00:15:20.685Z,51.40
2023-03-24T00:16:21.401Z,42.40
2023-03-24T00:17:22.078Z,46.80
2023-03-24T00:18:22.788Z,57.10
2023-03-24T00:19:23.483Z,48.50
2023-03-24T00:20:24.201Z,53.50
2023-03-24T00:21:25.090Z,53.20
2023-03-24T00:22:25.776Z,41.20
2023-03-24T00:23:26.477Z,53.80
2023-03-24T00:24:27.176Z,43.90
2023-03-24T00:25:27.893Z,49.40
2023-03-24T00:26:28.877Z,42.80
2023-03-24T00:27:29.575Z,37.20
2023-03-24T00:28:30.282Z,35.40
2023-03-24T00:29:30.984Z,49.60
2023-03-24T00:30:31.745Z,49.90
2023-03-24T00:31:32.906Z,43.80
2023-03-24T00:32:33.110Z,39.40
2023-03-24T00:33:33.794Z,39.30
2023-03-24T00:34:34.490Z,40.30
2023-03-24T00:35:35.221Z,40.50
2023-03-24T00:36:35.913Z,37.70
2023-03-24T00:37:36.621Z,36.90
2023-03-24T00:38:37.324Z,33.30
2023-03-24T00:39:38.035Z,42.90
2023-03-24T00:40:38.746Z,38.80
2023-03-24T00:41:39.447Z,47.90
2023-03-24T00:44:28.986Z,43.50
2023-03-24T00:45:29.787Z,30.00
2023-03-24T00:46:30.928Z,31.60
2023-03-24T00:47:31.192Z,38.30
2023-03-24T00:48:31.876Z,35.40
2023-03-24T00:49:32.578Z,36.40
2023-03-24T00:50:33.299Z,44.30
2023-03-24T00:51:34.005Z,36.50
2023-03-24T00:52:35.205Z,38.30
2023-03-24T00:53:35.403Z,30.80
2023-03-24T00:54:36.106Z,41.40
2023-03-24T00:55:36.819Z,37.50
2023-03-24T00:56:37.596Z,34.10
2023-03-24T00:57:38.477Z,36.40
2023-03-24T00:59:00.188Z,40.20
2023-03-24T00:59:39.883Z,33.30
2023-03-24T01:00:40.616Z,30.30
2023-03-24T01:01:41.623Z,34.80
2023-03-24T01:02:41.887Z,30.70
2023-03-24T01:03:42.570Z,31.50
2023-03-24T01:04:43.268Z,31.20
2023-03-24T01:05:43.976Z,29.40
2023-03-24T01:06:44.684Z,31.00
2023-03-24T01:07:45.691Z,32.00
2023-03-24T01:08:45.908Z,35.30
2023-03-24T01:09:46.611Z,45.10
2023-03-24T01:10:47.367Z,35.30
2023-03-24T01:11:48.063Z,40.20
2023-03-24T01:12:48.755Z,36.50
2023-03-24T01:13:49.447Z,31.20
2023-03-24T01:14:50.158Z,36.60
2023-03-24T01:15:50.856Z,30.90
2023-03-24T01:16:51.608Z,25.50
2023-03-24T01:17:52.268Z,36.10
2023-03-24T01:18:52.969Z,27.50
2023-03-24T01:21:42.693Z,36.30
2023-03-24T01:22:43.397Z,38.50
2023-03-24T01:23:44.120Z,33.20
2023-03-24T01:24:44.826Z,36.00
2023-03-24T01:25:45.532Z,36.70
2023-03-24T01:26:46.250Z,43.40
2023-03-24T01:27:46.945Z,33.40
2023-03-24T01:28:47.719Z,30.20
2023-03-24T01:29:48.408Z,37.60
2023-03-24T01:30:49.114Z,35.70
2023-03-24T01:31:49.849Z,37.00
2023-03-24T01:32:50.888Z,33.40
2023-03-24T01:33:51.202Z,28.10
2023-03-24T01:34:51.912Z,46.30
2023-03-24T01:35:52.668Z,33.70
2023-03-24T01:36:53.314Z,78.70
2023-03-24T01:37:54.023Z,44.70
2023-03-24T01:38:55.203Z,40.90
2023-03-24T01:39:55.432Z,32.00
2023-03-24T01:40:56.112Z,25.40
2023-03-24T01:41:56.827Z,21.30
2023-03-24T01:42:57.586Z,20.00
2023-03-24T01:43:58.257Z,25.50
2023-03-24T01:44:58.961Z,31.40
2023-03-24T01:45:59.692Z,28.50
2023-03-24T01:47:00.372Z,29.80
2023-03-24T01:48:01.247Z,21.80
2023-03-24T01:49:01.919Z,20.40
2023-03-24T01:50:02.627Z,27.70
2023-03-24T01:51:03.343Z,19.50
2023-03-24T01:52:04.035Z,18.60
2023-03-24T01:53:04.745Z,20.60
2023-03-24T01:54:05.706Z,24.70
2023-03-24T01:55:06.417Z,14.90
2023-03-24T01:56:07.125Z,23.00
2023-03-24T01:57:07.835Z,21.10
2023-03-24T01:58:08.523Z,24.90
2023-03-24T01:59:09.235Z,25.10
2023-03-24T02:00:09.937Z,20.50
2023-03-24T02:01:10.654Z,16.20
2023-03-24T02:02:11.361Z,21.50
2023-03-24T02:03:12.084Z,24.00
2023-03-24T02:04:12.930Z,21.50
2023-03-24T02:05:13.604Z,18.70
2023-03-24T02:06:14.301Z,18.10
2023-03-24T02:07:15.014Z,21.10
2023-03-24T02:08:15.732Z,21.50
2023-03-24T02:09:16.444Z,20.70
2023-03-24T02:10:17.160Z,17.10
2023-03-24T02:11:17.863Z,22.50
2023-03-24T02:12:18.566Z,18.30
2023-03-24T02:13:19.274Z,23.30
2023-03-24T02:14:19.988Z,14.20
2023-03-24T02:15:20.715Z,12.40
2023-03-24T02:16:21.448Z,28.50
2023-03-24T02:17:22.110Z,25.30
2023-03-24T02:18:22.868Z,22.90
2023-03-24T02:19:24.932Z,40.00
2023-03-24T02:20:24.431Z,18.90
2023-03-24T02:21:25.137Z,15.00
2023-03-24T02:22:25.861Z,15.50
2023-03-24T02:23:26.562Z,19.80
2023-03-24T02:24:27.290Z,15.70
2023-03-24T02:25:28.004Z,25.20
2023-03-24T02:26:28.701Z,20.50
2023-03-24T02:27:29.405Z,15.80
2023-03-24T02:28:30.120Z,18.00
2023-03-24T02:29:30.824Z,27.60
2023-03-24T02:30:31.528Z,25.90
2023-03-24T02:31:32.303Z,16.80
2023-03-24T02:32:32.971Z,23.00
2023-03-24T02:33:33.702Z,30.00
2023-03-24T02:34:34.374Z,41.30
2023-03-24T02:35:35.115Z,31.50
2023-03-24T02:36:35.802Z,29.90
2023-03-24T02:37:36.502Z,24.70
2023-03-24T02:38:37.202Z,35.10
2023-03-24T02:39:38.233Z,26.50
2023-03-24T02:40:38.424Z,26.80
2023-03-24T02:42:00.151Z,34.60
2023-03-24T02:42:39.835Z,43.80
2023-03-24T02:43:40.537Z,30.20
2023-03-24T02:44:41.252Z,34.70
2023-03-24T02:45:41.990Z,29.80
2023-03-24T02:46:42.654Z,33.20
2023-03-24T02:47:43.404Z,34.40
2023-03-24T02:48:44.126Z,31.00
2023-03-24T02:49:45.219Z,34.80
2023-03-24T02:50:45.735Z,29.20
2023-03-24T02:51:46.078Z,33.50
2023-03-24T02:52:46.782Z,36.80
2023-03-24T02:53:47.572Z,43.30
2023-03-24T02:54:48.714Z,28.90
2023-03-24T02:55:48.933Z,31.00
2023-03-24T02:56:49.671Z,28.10
2023-03-24T02:57:50.381Z,33.80
2023-03-24T02:58:51.074Z,45.90
2023-03-24T02:59:52.224Z,41.20
2023-03-24T03:00:52.432Z,31.20
2023-03-24T03:01:53.188Z,35.60
2023-03-24T03:02:53.936Z,44.20
2023-03-24T03:03:54.712Z,43.00
2023-03-24T03:05:16.715Z,24.00
2023-03-24T03:05:55.929Z,35.30
2023-03-24T03:06:56.647Z,45.70
2023-03-24T03:07:57.344Z,36.50
2023-03-24T03:08:58.061Z,34.20
2023-03-24T03:09:58.766Z,32.10
2023-03-24T03:10:59.468Z,32.60
2023-03-24T03:12:00.168Z,42.80
2023-03-24T03:13:00.874Z,34.10
2023-03-24T03:14:01.584Z,36.80
2023-03-24T03:15:02.294Z,35.70
2023-03-24T03:16:03.254Z,34.00
2023-03-24T03:17:03.917Z,35.90
2023-03-24T03:18:04.657Z,39.20
2023-03-24T03:19:05.373Z,44.70
2023-03-24T03:20:06.008Z,27.90
2023-03-24T03:21:06.739Z,44.10
2023-03-24T03:22:07.444Z,36.00
2023-03-24T03:23:08.140Z,39.30
2023-03-24T03:24:29.890Z,51.40
2023-03-24T03:25:09.577Z,31.30
2023-03-24T03:26:10.300Z,39.70
2023-03-24T03:27:11.006Z,33.70
2023-03-24T03:28:11.718Z,36.90
2023-03-24T03:29:12.414Z,43.50
2023-03-24T03:30:13.122Z,36.80
2023-03-24T03:31:13.927Z,37.00
2023-03-24T03:32:14.566Z,31.90
2023-03-24T03:33:15.312Z,43.50
2023-03-24T03:34:16.026Z,34.80
2023-03-24T03:35:16.674Z,40.00
2023-03-24T03:36:17.417Z,44.50
2023-03-24T03:37:18.113Z,31.40
2023-03-24T03:38:18.804Z,46.90
2023-03-24T03:39:19.502Z,36.10
2023-03-24T03:40:20.219Z,33.70
2023-03-24T03:41:21.227Z,37.80
2023-03-24T03:42:21.434Z,31.70
2023-03-24T03:43:22.141Z,29.80
2023-03-24T03:44:22.846Z,40.70
2023-03-24T03:47:12.376Z,35.70
2023-03-24T03:48:13.105Z,48.10
2023-03-24T03:49:13.793Z,50.30
2023-03-24T03:50:14.537Z,48.30
2023-03-24T03:51:15.211Z,49.80
2023-03-24T03:52:16.091Z,46.00
2023-03-24T03:53:16.791Z,51.50
2023-03-24T03:54:17.507Z,51.20
2023-03-24T03:55:18.201Z,46.50
2023-03-24T03:56:18.905Z,51.40
2023-03-24T03:57:20.092Z,45.70
2023-03-24T03:58:20.298Z,43.80
2023-03-24T03:59:21.194Z,62.10
2023-03-24T04:00:23.603Z,48.70
2023-03-24T04:01:22.680Z,46.30
2023-03-24T04:02:23.405Z,55.20
2023-03-24T04:03:24.291Z,41.30
2023-03-24T04:04:25.041Z,55.80
2023-03-24T04:05:25.778Z,59.10
2023-03-24T04:06:26.415Z,53.50
2023-03-24T04:07:27.129Z,45.70
2023-03-24T04:08:27.849Z,51.60
2023-03-24T04:09:28.554Z,59.60
2023-03-24T04:10:29.258Z,49.50
2023-03-24T04:11:29.959Z,56.80
2023-03-24T04:12:30.674Z,57.10
2023-03-24T04:13:31.491Z,59.00
2023-03-24T04:14:32.131Z,59.50
2023-03-24T04:15:32.833Z,51.50
2023-03-24T04:16:33.601Z,50.70
2023-03-24T04:17:34.268Z,56.30
2023-03-24T04:18:34.954Z,57.80
2023-03-24T04:19:35.660Z,52.70
2023-03-24T04:20:36.408Z,57.10
2023-03-24T04:21:37.044Z,59.80
2023-03-24T04:22:37.758Z,67.20
2023-03-24T04:23:38.453Z,60.80
2023-03-24T04:24:39.156Z,57.60
2023-03-24T04:25:39.864Z,63.00
2023-03-24T04:26:40.564Z,63.20
2023-03-24T04:27:41.290Z,62.70
2023-03-24T04:28:42.008Z,69.80
2023-03-24T04:29:42.702Z,64.80
2023-03-24T04:30:43.401Z,55.80
2023-03-24T04:31:44.209Z,63.40
2023-03-24T04:32:45.124Z,60.70
2023-03-24T04:33:45.828Z,61.10
2023-03-24T04:34:46.523Z,69.90
2023-03-24T04:35:47.383Z,64.50
2023-03-24T04:36:48.055Z,63.10
2023-03-24T04:37:48.782Z,62.70
2023-03-24T04:38:49.472Z,61.10
2023-03-24T04:39:50.175Z,77.40
2023-03-24T04:40:50.879Z,64.80
2023-03-24T04:41:51.593Z,71.20
2023-03-24T04:42:52.775Z,85.70
2023-03-24T04:43:53.006Z,70.70
2023-03-24T04:44:53.713Z,101.30
2023-03-24T04:45:54.428Z,148.60
2023-03-24T04:46:55.108Z,289.60
2023-03-24T04:47:56.109Z,148.00
2023-03-24T04:48:56.801Z,250.00
2023-03-24T04:49:57.510Z,65.10
2023-03-24T04:50:58.256Z,59.60
2023-03-24T04:51:58.923Z,48.90
2023-03-24T04:53:00.127Z,53.40
2023-03-24T04:54:00.306Z,52.00
2023-03-24T04:55:01.008Z,51.50
2023-03-24T04:56:01.717Z,51.60
2023-03-24T04:57:02.457Z,46.80
2023-03-24T04:58:03.133Z,29.00
2023-03-24T04:59:03.844Z,21.20
2023-03-24T05:00:04.551Z,14.70
2023-03-24T05:01:05.285Z,8.90
2023-03-24T05:02:05.972Z,11.90
2023-03-24T05:03:06.701Z,9.40
2023-03-24T05:04:07.399Z,5.50
2023-03-24T05:05:08.090Z,10.50
2023-03-24T05:06:08.832Z,7.30
2023-03-24T05:07:09.491Z,8.30
2023-03-24T05:08:31.224Z,8.00
2023-03-24T05:09:10.923Z,16.00
2023-03-24T05:10:11.602Z,16.60
2023-03-24T05:11:12.303Z,10.10
2023-03-24T05:12:13.030Z,11.80
2023-03-24T05:13:13.709Z,11.00
2023-03-24T05:14:14.420Z,18.90
2023-03-24T05:15:15.118Z,15.40
2023-03-24T05:16:15.863Z,12.10
2023-03-24T05:17:16.525Z,15.00
2023-03-24T05:18:17.237Z,14.40
2023-03-24T05:19:17.955Z,24.10
2023-03-24T05:20:18.658Z,15.50
2023-03-24T05:21:19.402Z,17.70
2023-03-24T05:22:20.062Z,17.40
2023-03-24T05:23:20.773Z,15.20
2023-03-24T05:24:21.518Z,20.60
2023-03-24T05:25:22.236Z,12.80
2023-03-24T05:26:43.931Z,23.80
2023-03-24T05:27:23.626Z,13.10
2023-03-24T05:28:24.341Z,17.10
2023-03-24T05:29:25.122Z,20.80
2023-03-24T05:30:25.868Z,20.90
2023-03-24T05:31:26.525Z,21.10
2023-03-24T05:32:27.302Z,22.20
2023-03-24T05:33:28.024Z,20.20
2023-03-24T05:34:28.734Z,16.80
2023-03-24T05:35:29.464Z,15.80
2023-03-24T05:36:30.309Z,24.30
2023-03-24T05:37:30.952Z,25.30
2023-03-24T05:38:31.646Z,21.70
2023-03-24T05:39:32.376Z,17.20
2023-03-24T05:40:33.089Z,12.10
2023-03-24T05:41:33.809Z,19.00
2023-03-24T05:42:34.521Z,27.70
2023-03-24T05:43:35.208Z,21.70
2023-03-24T05:44:35.944Z,34.60
2023-03-24T05:45:36.661Z,25.90
2023-03-24T05:46:37.378Z,24.90
2023-03-24T05:47:38.105Z,24.80
2023-03-24T05:48:38.851Z,25.00
2023-03-24T05:49:39.740Z,22.00
2023-03-24T05:50:40.277Z,30.30
2023-03-24T05:51:41.136Z,20.20
2023-03-24T05:52:41.804Z,21.20
2023-03-24T05:53:42.510Z,29.80
2023-03-24T05:54:50.626Z,18.20
2023-03-24T05:55:51.822Z,28.10
2023-03-24T05:58:45.129Z,19.50
2023-03-24T05:59:52.892Z,22.00
2023-03-24T06:04:43.175Z,19.90
2023-03-24T06:05:50.986Z,12.00
2023-03-24T06:06:51.775Z,11.60
2023-03-24T06:07:52.513Z,14.90
2023-03-24T06:12:23.536Z,10.00
2023-03-24T06:13:31.268Z,9.40
2023-03-24T06:14:32.151Z,6.80
2023-03-24T06:15:25.647Z,13.20
2023-03-24T06:16:26.434Z,18.10
2023-03-24T06:17:26.978Z,11.00
2023-03-24T06:18:27.640Z,13.70
2023-03-24T06:19:28.344Z,17.20
2023-03-24T06:20:29.064Z,14.80
2023-03-24T06:21:29.757Z,21.00
2023-03-24T06:22:30.506Z,24.80
2023-03-24T06:23:31.229Z,25.40
2023-03-24T06:24:31.917Z,25.00
2023-03-24T06:25:32.624Z,24.00
2023-03-24T06:26:33.330Z,20.90
2023-03-24T06:27:34.044Z,18.70
2023-03-24T06:28:34.793Z,29.30
2023-03-24T06:29:35.465Z,22.90
2023-03-24T06:30:36.161Z,18.40
2023-03-24T06:31:36.945Z,18.10
2023-03-24T06:32:37.807Z,19.90
2023-03-24T06:33:38.480Z,26.80
2023-03-24T06:34:39.186Z,24.50
2023-03-24T06:35:39.942Z,28.70
2023-03-24T06:36:40.650Z,20.60
2023-03-24T06:37:41.807Z,33.70
2023-03-24T06:38:41.971Z,22.10
2023-03-24T06:39:42.651Z,17.90
2023-03-24T06:40:43.449Z,18.30
2023-03-24T06:41:44.093Z,30.80
2023-03-24T06:42:44.799Z,24.90
2023-03-24T06:43:45.506Z,20.10
2023-03-24T06:44:46.222Z,18.80
2023-03-24T06:45:47.134Z,22.20
2023-03-24T06:46:47.967Z,21.50
2023-03-24T06:47:48.683Z,18.80
2023-03-24T06:48:49.411Z,25.30
2023-03-24T06:49:50.065Z,29.30
2023-03-24T06:50:50.768Z,23.50
2023-03-24T06:51:51.480Z,23.20
2023-03-24T06:52:52.205Z,24.30
2023-03-24T06:53:52.909Z,26.40
2023-03-24T06:54:53.607Z,26.20
2023-03-24T06:55:54.313Z,25.30
2023-03-24T06:56:55.063Z,20.30
2023-03-24T06:57:55.784Z,26.60
2023-03-24T06:59:24.256Z,21.80
2023-03-24T06:59:57.467Z,25.80
2023-03-24T07:00:58.168Z,16.90
2023-03-24T07:01:58.903Z,28.20
2023-03-24T07:02:59.689Z,16.80
2023-03-24T07:04:00.455Z,23.10
2023-03-24T07:05:01.105Z,27.50
2023-03-24T07:06:01.809Z,17.30
2023-03-24T07:07:27.817Z,25.50
2023-03-24T07:08:27.874Z,19.40
2023-03-24T07:09:04.943Z,21.90
2023-03-24T07:10:04.598Z,25.90
2023-03-24T07:11:05.298Z,26.30
2023-03-24T07:12:06.002Z,37.00
2023-03-24T07:13:06.711Z,21.50
2023-03-24T07:14:07.420Z,27.60
2023-03-24T07:15:08.132Z,26.80
2023-03-24T07:16:08.869Z,20.10
2023-03-24T07:17:09.541Z,22.80
2023-03-24T07:18:10.297Z,29.80
2023-03-24T07:19:10.969Z,22.60
2023-03-24T07:20:11.695Z,25.40
2023-03-24T07:21:12.381Z,24.80
2023-03-24T07:22:13.102Z,29.20
2023-03-24T07:23:13.827Z,14.80
2023-03-24T07:24:14.546Z,14.30
2023-03-24T07:25:15.230Z,13.80
2023-03-24T07:26:15.932Z,18.40
2023-03-24T07:27:16.660Z,11.50
2023-03-24T07:28:17.769Z,11.20
2023-03-24T07:29:18.003Z,15.00
2023-03-24T07:30:24.214Z,15.40
2023-03-24T07:31:20.335Z,14.20
2023-03-24T07:32:20.024Z,16.80
2023-03-24T07:33:41.754Z,17.00
2023-03-24T07:34:21.482Z,12.70
2023-03-24T07:35:22.177Z,14.30
2023-03-24T07:36:22.926Z,14.00
2023-03-24T07:37:23.625Z,11.70
2023-03-24T07:38:24.348Z,13.80
2023-03-24T07:39:25.062Z,10.60
2023-03-24T07:40:25.749Z,7.90
2023-03-24T07:41:26.456Z,4.80
2023-03-24T07:42:27.173Z,9.40
2023-03-24T07:43:27.876Z,16.70
2023-03-24T07:44:28.593Z,15.50
2023-03-24T07:45:29.323Z,12.00
2023-03-24T07:46:30.039Z,11.60
2023-03-24T07:47:30.740Z,15.10
2023-03-24T07:48:31.423Z,15.20
2023-03-24T07:49:32.140Z,12.90
2023-03-24T07:50:32.854Z,12.50
2023-03-24T07:51:37.068Z,12.30
2023-03-24T07:54:24.263Z,16.90
2023-03-24T07:55:24.924Z,13.10
2023-03-24T07:56:49.278Z,10.40
2023-03-24T07:57:26.453Z,12.00
2023-03-24T07:58:27.163Z,13.60
2023-03-24T07:59:28.025Z,9.30
2023-03-24T08:00:28.731Z,8.30
2023-03-24T08:01:29.434Z,11.00
2023-03-24T08:02:30.248Z,10.90
2023-03-24T08:03:31.014Z,10.90
2023-03-24T08:04:31.763Z,12.20
2023-03-24T08:05:32.460Z,13.20
2023-03-24T08:06:33.167Z,8.70
2023-03-24T08:07:33.873Z,11.50
2023-03-24T08:08:34.579Z,14.70
2023-03-24T08:09:35.301Z,9.10
2023-03-24T08:10:36.010Z,12.10
2023-03-24T08:11:36.685Z,7.90
2023-03-24T08:12:58.395Z,11.00
2023-03-24T08:13:38.095Z,8.00
2023-03-24T08:14:38.810Z,18.50
2023-03-24T08:15:39.511Z,11.60
2023-03-24T08:16:40.250Z,10.60
2023-03-24T08:17:40.944Z,17.50
2023-03-24T08:18:41.632Z,9.20
2023-03-24T08:19:56.146Z,11.50
2023-03-24T08:20:44.233Z,6.40
2023-03-24T08:21:43.896Z,11.50
2023-03-24T08:22:44.608Z,11.20
2023-03-24T08:23:45.307Z,9.70
2023-03-24T08:24:46.046Z,9.80
2023-03-24T08:25:47.390Z,9.60
2023-03-24T08:26:47.633Z,7.80
2023-03-24T08:27:48.343Z,6.10
2023-03-24T08:28:49.041Z,8.40
2023-03-24T08:29:49.758Z,7.20
2023-03-24T08:30:51.061Z,9.20
2023-03-24T08:31:51.543Z,12.10
2023-03-24T08:32:52.262Z,8.30
2023-03-24T08:33:52.949Z,9.50
2023-03-24T08:36:42.707Z,13.90
2023-03-24T08:37:43.417Z,4.60
2023-03-24T08:38:44.119Z,8.40
2023-03-24T08:39:44.834Z,10.00
2023-03-24T08:40:45.574Z,8.30
2023-03-24T08:41:46.275Z,6.80
2023-03-24T08:42:46.955Z,8.90
2023-03-24T08:43:47.648Z,6.30
2023-03-24T08:44:48.351Z,4.90
2023-03-24T08:45:49.157Z,10.20
2023-03-24T08:46:50.215Z,8.60
2023-03-24T08:47:50.570Z,5.30
2023-03-24T08:48:51.296Z,8.50
2023-03-24T08:49:52.003Z,4.90
2023-03-24T08:50:52.720Z,5.30
2023-03-24T08:51:53.702Z,11.60
2023-03-24T08:52:55.748Z,6.00
2023-03-24T08:53:55.296Z,8.50
2023-03-24T08:54:56.010Z,10.30
2023-03-24T08:55:56.814Z,9.90
2023-03-24T08:56:57.564Z,5.30
2023-03-24T08:58:26.196Z,3.10
2023-03-24T08:58:58.890Z,4.10
2023-03-24T08:59:59.606Z,9.40
2023-03-24T09:01:00.295Z,10.90
2023-03-24T09:02:01.034Z,4.20
2023-03-24T09:03:01.793Z,4.70
2023-03-24T09:04:02.492Z,11.70
2023-03-24T09:05:03.257Z,5.10
2023-03-24T09:06:03.989Z,10.90
2023-03-24T09:07:04.720Z,8.90
2023-03-24T09:08:05.423Z,8.10
2023-03-24T09:09:06.120Z,6.00
2023-03-24T09:10:06.818Z,7.80
2023-03-24T09:11:07.550Z,6.80
2023-03-24T09:12:08.253Z,11.50
2023-03-24T09:13:08.938Z,4.60
2023-03-24T09:14:09.643Z,4.50
2023-03-24T09:15:11.762Z,5.50
2023-03-24T09:16:11.361Z,8.00
2023-03-24T09:17:33.748Z,7.70
2023-03-24T09:18:12.945Z,7.40
2023-03-24T09:19:13.641Z,7.60
2023-03-24T09:20:14.356Z,6.80
2023-03-24T09:21:15.059Z,12.10
2023-03-24T09:22:15.804Z,9.20
2023-03-24T09:23:16.702Z,6.50
2023-03-24T09:24:17.401Z,14.20
2023-03-24T09:25:18.159Z,11.10
2023-03-24T09:26:18.872Z,9.00
2023-03-24T09:27:19.568Z,15.10
2023-03-24T09:28:20.698Z,11.70
2023-03-24T09:29:20.904Z,8.00
2023-03-24T09:30:21.601Z,10.30
2023-03-24T09:31:22.363Z,7.10
2023-03-24T09:32:23.059Z,10.20
2023-03-24T09:33:24.223Z,12.90
2023-03-24T09:34:24.398Z,11.70
2023-03-24T09:35:25.134Z,7.70
2023-03-24T09:36:25.825Z,10.70
2023-03-24T09:37:26.530Z,12.30
2023-03-24T09:38:27.261Z,6.30
2023-03-24T09:41:16.996Z,14.00
2023-03-24T09:42:17.721Z,6.30
2023-03-24T09:43:18.423Z,8.90
2023-03-24T09:44:19.100Z,9.40
2023-03-24T09:45:19.834Z,8.50
2023-03-24T09:46:20.544Z,12.10
2023-03-24T09:47:21.232Z,14.40
2023-03-24T09:48:21.940Z,8.80
2023-03-24T09:49:22.649Z,11.20
2023-03-24T09:50:23.352Z,7.00
2023-03-24T09:51:24.061Z,5.50
2023-03-24T09:52:24.766Z,10.50
2023-03-24T09:53:25.469Z,11.30
2023-03-24T09:54:26.184Z,3.40
2023-03-24T09:55:26.919Z,7.50
2023-03-24T09:56:27.690Z,9.90
2023-03-24T09:57:28.370Z,12.20
2023-03-24T09:58:29.165Z,9.10
2023-03-24T09:59:30.009Z,7.50
2023-03-24T10:00:30.777Z,11.90
2023-03-24T10:01:31.473Z,9.70
2023-03-24T10:02:32.297Z,8.10
2023-03-24T10:03:33.192Z,14.50
2023-03-24T10:04:33.907Z,9.90
2023-03-24T10:05:34.615Z,6.40
2023-03-24T10:06:35.316Z,8.70
2023-03-24T10:07:36.027Z,9.60
2023-03-24T10:08:36.720Z,11.30
2023-03-24T10:09:37.470Z,7.30
2023-03-24T10:10:38.184Z,6.70
2023-03-24T10:11:38.885Z,6.20
2023-03-24T10:12:39.613Z,5.30
2023-03-24T10:13:40.405Z,5.10
2023-03-24T10:14:41.031Z,8.40
2023-03-24T10:15:41.733Z,6.80
2023-03-24T10:16:42.472Z,5.90
2023-03-24T10:17:43.207Z,8.20
2023-03-24T10:18:43.882Z,10.20
2023-03-24T10:19:44.597Z,12.80
2023-03-24T10:20:45.298Z,8.20
2023-03-24T10:21:46.005Z,6.80
2023-03-24T10:22:46.709Z,6.30
2023-03-24T10:23:47.425Z,6.50
2023-03-24T10:24:48.162Z,8.50
2023-03-24T10:25:49.069Z,8.30
2023-03-24T10:26:49.356Z,8.70
2023-03-24T10:27:50.112Z,8.30
2023-03-24T10:28:50.790Z,6.50
2023-03-24T10:29:51.527Z,5.90
2023-03-24T10:30:52.232Z,7.70
2023-03-24T10:31:53.002Z,3.60
2023-03-24T10:32:53.670Z,9.00
2023-03-24T10:33:54.366Z,9.20
2023-03-24T10:34:55.528Z,7.60
2023-03-24T10:35:55.765Z,8.40
2023-03-24T10:36:56.442Z,11.00
2023-03-24T10:37:57.349Z,6.60
2023-03-24T10:39:01.898Z,6.20
2023-03-24T10:40:00.047Z,5.10
2023-03-24T10:40:59.245Z,7.60
2023-03-24T10:41:59.950Z,10.80
2023-03-24T10:43:07.041Z,9.10
2023-03-24T10:44:30.036Z,13.40
2023-03-24T10:45:02.239Z,9.80
2023-03-24T10:46:02.959Z,6.10
2023-03-24T10:47:03.635Z,7.60
2023-03-24T10:48:04.421Z,8.30
2023-03-24T10:49:05.130Z,6.50
2023-03-24T10:50:12.541Z,7.80
2023-03-24T10:51:07.634Z,7.60
2023-03-24T10:52:07.336Z,8.00
2023-03-24T10:53:08.049Z,9.50
2023-03-24T10:54:08.748Z,5.60
2023-03-24T10:55:09.540Z,7.90
2023-03-24T10:56:10.244Z,11.40
2023-03-24T10:57:11.019Z,12.40
2023-03-24T10:58:11.697Z,7.30
2023-03-24T10:59:12.388Z,9.50
2023-03-24T11:00:13.625Z,5.70
2023-03-24T11:01:13.785Z,4.40
2023-03-24T11:02:14.514Z,8.70
2023-03-24T11:03:15.343Z,4.60
2023-03-24T11:04:16.064Z,6.30
2023-03-24T11:05:17.545Z,6.20
2023-03-24T11:06:17.756Z,4.20
2023-03-24T11:07:18.475Z,9.90
2023-03-24T11:08:19.178Z,6.70
2023-03-24T11:09:19.881Z,8.40
2023-03-24T11:10:20.593Z,8.80
2023-03-24T11:11:21.304Z,4.20
2023-03-24T11:12:22.011Z,8.90
2023-03-24T11:13:22.730Z,4.30
2023-03-24T11:14:23.427Z,6.80
2023-03-24T11:15:24.152Z,7.50
2023-03-24T11:16:24.878Z,4.70
2023-03-24T11:17:25.599Z,5.50
2023-03-24T11:18:26.266Z,5.60
2023-03-24T11:19:26.962Z,6.30
2023-03-24T11:20:48.677Z,3.40
2023-03-24T11:21:28.370Z,5.50
2023-03-24T11:22:29.078Z,3.80
2023-03-24T11:23:29.786Z,3.30
2023-03-24T11:24:30.487Z,4.00
2023-03-24T11:25:33.808Z,3.50
2023-03-24T11:26:32.038Z,7.20
2023-03-24T11:27:32.746Z,9.60
2023-03-24T11:28:33.479Z,7.00
2023-03-24T11:29:34.157Z,6.30
2023-03-24T11:30:34.935Z,7.80
2023-03-24T11:31:35.641Z,8.30
2023-03-24T11:32:36.348Z,4.00
2023-03-24T11:33:37.069Z,6.00
2023-03-24T11:34:37.774Z,9.30
2023-03-24T11:35:42.657Z,6.00
2023-03-24T11:36:39.628Z,7.00
2023-03-24T11:37:39.812Z,3.00
2023-03-24T11:38:40.513Z,5.60
2023-03-24T11:39:41.218Z,4.60
2023-03-24T11:40:41.929Z,2.80
2023-03-24T11:41:43.058Z,5.70
2023-03-24T11:42:45.386Z,4.90
2023-03-24T11:44:05.070Z,7.50
2023-03-24T11:44:44.537Z,6.30
2023-03-24T11:45:45.260Z,2.50
2023-03-24T11:46:45.969Z,3.60
2023-03-24T11:47:46.682Z,7.60
2023-03-24T11:48:47.352Z,3.40
2023-03-24T11:49:48.092Z,3.80
2023-03-24T11:50:48.798Z,6.80
2023-03-24T11:51:49.545Z,5.50
2023-03-24T11:52:50.263Z,6.40
2023-03-24T11:53:50.965Z,3.90
2023-03-24T11:54:51.673Z,5.70
2023-03-24T11:55:52.382Z,5.70
2023-03-24T11:56:53.567Z,2.80
2023-03-24T11:57:53.748Z,4.50
2023-03-24T11:58:54.448Z,5.60
2023-03-24T11:59:55.197Z,3.90
2023-03-24T12:00:55.899Z,2.50
2023-03-24T12:01:57.062Z,9.40
2023-03-24T12:02:57.293Z,4.30
2023-03-24T12:03:58.052Z,2.50
2023-03-24T12:04:58.786Z,4.50
2023-03-24T12:06:20.531Z,7.50
2023-03-24T12:07:00.550Z,2.50
2023-03-24T12:08:00.762Z,2.30
2023-03-24T12:09:01.464Z,3.70
2023-03-24T12:10:02.161Z,3.10
2023-03-24T12:11:02.975Z,9.00
2023-03-24T12:12:07.791Z,5.60
2023-03-24T12:13:04.609Z,4.90
2023-03-24T12:14:05.320Z,4.80
2023-03-24T12:15:14.417Z,4.10
2023-03-24T12:16:07.792Z,5.30
2023-03-24T12:17:07.566Z,3.80
2023-03-24T12:18:08.328Z,3.20
2023-03-24T12:19:08.975Z,2.30
2023-03-24T12:20:09.681Z,5.50
2023-03-24T12:21:10.387Z,3.50
2023-03-24T12:22:11.552Z,2.80
2023-03-24T12:23:11.755Z,2.50
2023-03-24T12:24:12.465Z,3.50
2023-03-24T12:25:13.172Z,4.90
2023-03-24T12:26:13.876Z,2.60
2023-03-24T12:27:35.580Z,3.30
2023-03-24T12:28:15.279Z,5.10
2023-03-24T12:29:15.979Z,6.30
2023-03-24T12:30:16.700Z,4.80
2023-03-24T12:31:17.450Z,4.10
2023-03-24T12:32:18.106Z,5.70
2023-03-24T12:33:19.057Z,5.90
2023-03-24T12:34:19.804Z,3.30
2023-03-24T12:35:21.057Z,6.80
2023-03-24T12:36:21.204Z,5.10
2023-03-24T12:37:22.015Z,2.20
2023-03-24T12:38:23.056Z,5.30
2023-03-24T12:39:23.258Z,2.80
2023-03-24T12:40:24.042Z,9.00
2023-03-24T12:41:25.264Z,4.40
2023-03-24T12:42:25.404Z,3.80
2023-03-24T12:43:26.571Z,3.60
2023-03-24T12:44:26.776Z,3.50
2023-03-24T12:47:16.576Z,3.40
2023-03-24T12:48:17.203Z,4.60
2023-03-24T12:49:18.020Z,3.70
2023-03-24T12:50:18.724Z,6.30
2023-03-24T12:51:19.429Z,5.20
2023-03-24T12:52:20.136Z,4.50
2023-03-24T12:53:20.838Z,3.90
2023-03-24T12:54:22.020Z,5.60
2023-03-24T12:55:22.225Z,3.20
2023-03-24T12:56:22.953Z,3.20
2023-03-24T12:57:23.651Z,4.60
2023-03-24T12:58:24.360Z,3.90
2023-03-24T12:59:25.072Z,3.60
2023-03-24T13:00:46.815Z,4.80
2023-03-24T13:01:26.481Z,4.30
2023-03-24T13:02:27.310Z,3.40
2023-03-24T13:03:27.999Z,4.60
2023-03-24T13:04:29.026Z,2.40
2023-03-24T13:05:29.238Z,6.60
2023-03-24T13:06:29.949Z,7.40
2023-03-24T13:07:30.629Z,3.40
2023-03-24T13:08:31.331Z,9.40
2023-03-24T13:09:32.056Z,4.90
2023-03-24T13:10:32.759Z,5.50
2023-03-24T13:11:33.606Z,5.50
2023-03-24T13:12:34.250Z,4.40
2023-03-24T13:13:34.952Z,5.50
2023-03-24T13:14:35.673Z,6.50
2023-03-24T13:15:36.369Z,4.70
2023-03-24T13:16:37.113Z,4.10
2023-03-24T13:17:38.092Z,3.40
2023-03-24T13:18:38.737Z,5.90
2023-03-24T13:19:39.450Z,6.50
2023-03-24T13:21:16.043Z,3.90
2023-03-24T13:21:40.730Z,3.50
2023-03-24T13:22:41.444Z,4.90
2023-03-24T13:23:42.149Z,4.00
2023-03-24T13:24:42.853Z,9.50
2023-03-24T13:25:43.571Z,5.40
2023-03-24T13:26:44.269Z,3.10
2023-03-24T13:27:44.962Z,7.70
2023-03-24T13:28:45.714Z,6.90
2023-03-24T13:29:49.757Z,6.00
2023-03-24T13:30:47.180Z,5.70
2023-03-24T13:31:47.814Z,4.70
2023-03-24T13:32:48.641Z,4.30